sensor_id;sensor_type;location;lat;lon;timestamp;pressure;altitude;pressure_sealevel;temperature;humidity
30935;BME280;51033;42.648;23.292;2023-02-04T00:00:04;93622.34;;;-0.26;54.09
30935;BME280;51033;42.648;23.292;2023-02-04T00:02:31;93627.50;;;-0.04;54.15
30935;BME280;51033;42.648;23.292;2023-02-04T00:04:57;93610.78;;;-0.35;56.47
30935;BME280;51033;42.648;23.292;2023-02-04T00:07:23;93605.06;;;-0.32;57.78
30935;BME280;51033;42.648;23.292;2023-02-04T00:09:49;93604.34;;;-0.86;61.64
30935;BME280;51033;42.648;23.292;2023-02-04T00:12:14;93612.81;;;-1.01;65.50
30935;BME280;51033;42.648;23.292;2023-02-04T00:14:40;93591.41;;;-1.03;65.82
30935;BME280;51033;42.648;23.292;2023-02-04T00:17:05;93620.53;;;-0.58;66.21
30935;BME280;51033;42.648;23.292;2023-02-04T00:19:40;93596.03;;;-0.15;64.04
30935;BME280;51033;42.648;23.292;2023-02-04T00:22:06;93595.97;;;-0.25;64.37
30935;BME280;51033;42.648;23.292;2023-02-04T00:24:36;93607.28;;;0.28;62.63
30935;BME280;51033;42.648;23.292;2023-02-04T00:27:02;93596.63;;;0.40;61.54
30935;BME280;51033;42.648;23.292;2023-02-04T00:29:28;93592.44;;;-0.03;64.11
30935;BME280;51033;42.648;23.292;2023-02-04T00:31:54;93576.81;;;-0.99;67.23
30935;BME280;51033;42.648;23.292;2023-02-04T00:34:19;93544.00;;;-0.58;65.81
30935;BME280;51033;42.648;23.292;2023-02-04T00:36:45;93574.75;;;-0.65;67.66
30935;BME280;51033;42.648;23.292;2023-02-04T00:39:11;93594.50;;;-0.79;68.31
30935;BME280;51033;42.648;23.292;2023-02-04T00:41:36;93547.94;;;-0.56;68.28
30935;BME280;51033;42.648;23.292;2023-02-04T00:44:02;93555.50;;;-0.59;67.53
30935;BME280;51033;42.648;23.292;2023-02-04T00:46:27;93582.34;;;-1.44;72.27
30935;BME280;51033;42.648;23.292;2023-02-04T00:48:53;93587.69;;;-1.34;72.77
30935;BME280;51033;42.648;23.292;2023-02-04T00:51:18;93574.91;;;-2.01;76.57
30935;BME280;51033;42.648;23.292;2023-02-04T00:53:44;93584.06;;;-1.33;74.62
30935;BME280;51033;42.648;23.292;2023-02-04T00:56:10;93566.69;;;-1.44;73.53
30935;BME280;51033;42.648;23.292;2023-02-04T00:58:35;93556.13;;;-1.81;76.57
30935;BME280;51033;42.648;23.292;2023-02-04T01:01:01;93551.03;;;-1.22;75.04
30935;BME280;51033;42.648;23.292;2023-02-04T01:03:26;93557.09;;;-0.53;72.37
30935;BME280;51033;42.648;23.292;2023-02-04T01:05:51;93578.19;;;-0.91;72.51
30935;BME280;51033;42.648;23.292;2023-02-04T01:08:17;93541.81;;;-1.30;72.69
30935;BME280;51033;42.648;23.292;2023-02-04T01:10:42;93552.50;;;-1.31;74.81
30935;BME280;51033;42.648;23.292;2023-02-04T01:13:08;93507.31;;;-1.37;73.21
30935;BME280;51033;42.648;23.292;2023-02-04T01:15:34;93543.53;;;-1.14;72.60
30935;BME280;51033;42.648;23.292;2023-02-04T01:18:00;93526.34;;;-2.07;75.31
30935;BME280;51033;42.648;23.292;2023-02-04T01:20:25;93510.97;;;-1.87;75.42
30935;BME280;51033;42.648;23.292;2023-02-04T01:22:50;93507.94;;;-1.52;74.57
30935;BME280;51033;42.648;23.292;2023-02-04T01:25:16;93512.41;;;-0.93;71.55
30935;BME280;51033;42.648;23.292;2023-02-04T01:27:43;93517.94;;;-1.65;72.72
30935;BME280;51033;42.648;23.292;2023-02-04T01:30:10;93476.13;;;-2.62;75.72
30935;BME280;51033;42.648;23.292;2023-02-04T01:32:35;93526.44;;;-2.18;77.22
30935;BME280;51033;42.648;23.292;2023-02-04T01:35:01;93484.06;;;-2.52;76.75
30935;BME280;51033;42.648;23.292;2023-02-04T01:37:26;93482.69;;;-2.38;77.74
30935;BME280;51033;42.648;23.292;2023-02-04T01:39:52;93518.81;;;-2.25;77.48
30935;BME280;51033;42.648;23.292;2023-02-04T01:42:17;93518.72;;;-1.92;76.75
30935;BME280;51033;42.648;23.292;2023-02-04T01:44:43;93498.38;;;-2.72;78.87
30935;BME280;51033;42.648;23.292;2023-02-04T01:47:08;93495.25;;;-2.74;80.43
30935;BME280;51033;42.648;23.292;2023-02-04T01:49:34;93484.97;;;-2.97;80.45
30935;BME280;51033;42.648;23.292;2023-02-04T01:52:01;93500.66;;;-2.20;78.63
30935;BME280;51033;42.648;23.292;2023-02-04T01:54:27;93497.72;;;-2.45;78.59
30935;BME280;51033;42.648;23.292;2023-02-04T01:56:52;93488.09;;;-2.61;78.78
30935;BME280;51033;42.648;23.292;2023-02-04T01:59:20;93483.50;;;-2.93;80.04
30935;BME280;51033;42.648;23.292;2023-02-04T02:01:48;93488.69;;;-2.38;79.06
30935;BME280;51033;42.648;23.292;2023-02-04T02:04:19;93494.16;;;-1.96;78.17
30935;BME280;51033;42.648;23.292;2023-02-04T02:06:54;93477.00;;;-1.92;76.87
30935;BME280;51033;42.648;23.292;2023-02-04T02:09:21;93472.94;;;-2.04;75.78
30935;BME280;51033;42.648;23.292;2023-02-04T02:11:47;93473.66;;;-2.09;77.43
30935;BME280;51033;42.648;23.292;2023-02-04T02:14:12;93454.59;;;-2.36;77.74
30935;BME280;51033;42.648;23.292;2023-02-04T02:16:38;93437.50;;;-2.87;80.00
30935;BME280;51033;42.648;23.292;2023-02-04T02:19:05;93452.66;;;-2.24;79.22
30935;BME280;51033;42.648;23.292;2023-02-04T02:21:39;93451.53;;;-1.85;76.57
30935;BME280;51033;42.648;23.292;2023-02-04T02:24:25;93439.09;;;-2.26;77.20
30935;BME280;51033;42.648;23.292;2023-02-04T02:26:52;93447.16;;;-3.04;80.97
30935;BME280;51033;42.648;23.292;2023-02-04T02:29:18;93414.34;;;-2.89;80.36
30935;BME280;51033;42.648;23.292;2023-02-04T02:31:43;93422.00;;;-2.99;81.96
30935;BME280;51033;42.648;23.292;2023-02-04T02:34:09;93419.94;;;-2.15;79.49
30935;BME280;51033;42.648;23.292;2023-02-04T02:36:34;93395.44;;;-2.14;76.69
30935;BME280;51033;42.648;23.292;2023-02-04T02:39:00;93383.78;;;-2.77;78.96
30935;BME280;51033;42.648;23.292;2023-02-04T02:41:26;93398.81;;;-2.62;80.18
30935;BME280;51033;42.648;23.292;2023-02-04T02:43:52;93398.59;;;-2.12;78.28
30935;BME280;51033;42.648;23.292;2023-02-04T02:46:17;93396.50;;;-2.15;77.10
30935;BME280;51033;42.648;23.292;2023-02-04T02:48:42;93335.00;;;-2.16;76.98
30935;BME280;51033;42.648;23.292;2023-02-04T02:51:08;93379.75;;;-2.19;76.16
30935;BME280;51033;42.648;23.292;2023-02-04T02:53:34;93375.41;;;-1.87;76.48
30935;BME280;51033;42.648;23.292;2023-02-04T02:55:59;93391.56;;;-1.26;74.69
30935;BME280;51033;42.648;23.292;2023-02-04T02:58:31;93368.59;;;-1.29;72.74
30935;BME280;51033;42.648;23.292;2023-02-04T03:00:58;93348.81;;;-1.20;72.34
30935;BME280;51033;42.648;23.292;2023-02-04T03:03:28;93370.88;;;-1.69;74.02
30935;BME280;51033;42.648;23.292;2023-02-04T03:05:58;93351.16;;;-1.23;73.59
30935;BME280;51033;42.648;23.292;2023-02-04T03:08:24;93364.09;;;-0.97;71.55
30935;BME280;51033;42.648;23.292;2023-02-04T03:10:50;93378.25;;;-1.61;73.71
30935;BME280;51033;42.648;23.292;2023-02-04T03:13:16;93360.56;;;-2.13;75.57
30935;BME280;51033;42.648;23.292;2023-02-04T03:15:44;93376.06;;;-2.50;78.46
30935;BME280;51033;42.648;23.292;2023-02-04T03:18:11;93353.34;;;-1.74;75.69
30935;BME280;51033;42.648;23.292;2023-02-04T03:20:38;93416.06;;;-0.95;73.30
30935;BME280;51033;42.648;23.292;2023-02-04T03:23:04;93383.69;;;-0.94;71.14
30935;BME280;51033;42.648;23.292;2023-02-04T03:25:29;93388.97;;;-1.85;74.69
30935;BME280;51033;42.648;23.292;2023-02-04T03:27:56;93383.94;;;-0.96;72.96
30935;BME280;51033;42.648;23.292;2023-02-04T03:30:22;93374.69;;;-0.66;70.58
30935;BME280;51033;42.648;23.292;2023-02-04T03:32:48;93368.72;;;-1.09;71.39
30935;BME280;51033;42.648;23.292;2023-02-04T03:35:14;93377.09;;;-0.60;70.61
30935;BME280;51033;42.648;23.292;2023-02-04T03:37:39;93374.78;;;-0.98;70.40
30935;BME280;51033;42.648;23.292;2023-02-04T03:40:05;93368.31;;;-0.90;71.49
30935;BME280;51033;42.648;23.292;2023-02-04T03:42:31;93358.59;;;-0.43;69.44
30935;BME280;51033;42.648;23.292;2023-02-04T03:44:56;93374.94;;;-0.11;68.24
30935;BME280;51033;42.648;23.292;2023-02-04T03:47:21;93329.88;;;-0.38;67.79
30935;BME280;51033;42.648;23.292;2023-02-04T03:49:47;93357.13;;;-0.09;67.40
30935;BME280;51033;42.648;23.292;2023-02-04T03:52:12;93317.03;;;-0.60;67.58
30935;BME280;51033;42.648;23.292;2023-02-04T03:54:37;93330.91;;;-0.44;68.57
30935;BME280;51033;42.648;23.292;2023-02-04T03:57:03;93327.59;;;-0.86;69.00
30935;BME280;51033;42.648;23.292;2023-02-04T03:59:28;93318.13;;;-0.35;68.21
30935;BME280;51033;42.648;23.292;2023-02-04T04:01:54;93314.53;;;-0.14;66.57
30935;BME280;51033;42.648;23.292;2023-02-04T04:04:19;93295.28;;;-0.70;68.87
30935;BME280;51033;42.648;23.292;2023-02-04T04:06:44;93274.53;;;-0.20;66.56
30935;BME280;51033;42.648;23.292;2023-02-04T04:09:10;93274.47;;;-0.50;67.20
30935;BME280;51033;42.648;23.292;2023-02-04T04:11:35;93278.44;;;-0.17;66.59
30935;BME280;51033;42.648;23.292;2023-02-04T04:14:00;93276.97;;;-0.85;69.40
30935;BME280;51033;42.648;23.292;2023-02-04T04:16:26;93231.38;;;-0.37;66.99
30935;BME280;51033;42.648;23.292;2023-02-04T04:18:52;93265.66;;;0.32;64.25
30935;BME280;51033;42.648;23.292;2023-02-04T04:21:17;93264.38;;;0.34;62.23
30935;BME280;51033;42.648;23.292;2023-02-04T04:23:43;93281.84;;;0.69;60.98
30935;BME280;51033;42.648;23.292;2023-02-04T04:26:08;93246.78;;;0.70;59.70
30935;BME280;51033;42.648;23.292;2023-02-04T04:28:34;93257.47;;;0.79;60.42
30935;BME280;51033;42.648;23.292;2023-02-04T04:30:59;93276.47;;;1.20;59.07
30935;BME280;51033;42.648;23.292;2023-02-04T04:33:24;93296.31;;;1.41;57.51
30935;BME280;51033;42.648;23.292;2023-02-04T04:35:50;93296.81;;;1.48;57.64
30935;BME280;51033;42.648;23.292;2023-02-04T04:38:15;93262.25;;;1.41;57.04
30935;BME280;51033;42.648;23.292;2023-02-04T04:40:40;93282.19;;;1.37;57.26
30935;BME280;51033;42.648;23.292;2023-02-04T04:43:06;93305.44;;;1.49;56.96
30935;BME280;51033;42.648;23.292;2023-02-04T04:45:31;93302.56;;;1.50;57.41
30935;BME280;51033;42.648;23.292;2023-02-04T04:47:56;93307.31;;;1.43;57.39
30935;BME280;51033;42.648;23.292;2023-02-04T04:50:22;93316.16;;;1.52;57.73
30935;BME280;51033;42.648;23.292;2023-02-04T04:52:47;93307.84;;;1.40;57.51
30935;BME280;51033;42.648;23.292;2023-02-04T04:55:13;93306.28;;;1.39;57.62
30935;BME280;51033;42.648;23.292;2023-02-04T04:57:38;93325.38;;;1.50;57.65
30935;BME280;51033;42.648;23.292;2023-02-04T05:00:06;93315.16;;;1.48;58.55
30935;BME280;51033;42.648;23.292;2023-02-04T05:02:31;93303.66;;;1.34;59.21
30935;BME280;51033;42.648;23.292;2023-02-04T05:04:57;93324.59;;;1.44;59.77
30935;BME280;51033;42.648;23.292;2023-02-04T05:07:22;93304.66;;;1.48;60.40
30935;BME280;51033;42.648;23.292;2023-02-04T05:09:48;93296.59;;;1.35;61.70
30935;BME280;51033;42.648;23.292;2023-02-04T05:12:13;93307.84;;;1.40;62.24
30935;BME280;51033;42.648;23.292;2023-02-04T05:14:38;93296.63;;;1.30;62.34
30935;BME280;51033;42.648;23.292;2023-02-04T05:17:04;93287.97;;;1.24;61.55
30935;BME280;51033;42.648;23.292;2023-02-04T05:19:29;93291.69;;;1.18;61.41
30935;BME280;51033;42.648;23.292;2023-02-04T05:21:55;93322.47;;;1.56;60.97
30935;BME280;51033;42.648;23.292;2023-02-04T05:24:21;93304.13;;;1.51;59.38
30935;BME280;51033;42.648;23.292;2023-02-04T05:26:47;93320.66;;;1.52;59.81
30935;BME280;51033;42.648;23.292;2023-02-04T05:29:12;93320.94;;;1.40;59.92
30935;BME280;51033;42.648;23.292;2023-02-04T05:31:37;93298.47;;;1.24;60.39
30935;BME280;51033;42.648;23.292;2023-02-04T05:34:03;93339.28;;;1.40;59.97
30935;BME280;51033;42.648;23.292;2023-02-04T05:36:28;93345.84;;;1.33;62.16
30935;BME280;51033;42.648;23.292;2023-02-04T05:38:54;93352.16;;;1.32;59.64
30935;BME280;51033;42.648;23.292;2023-02-04T05:41:19;93359.72;;;1.33;59.94
30935;BME280;51033;42.648;23.292;2023-02-04T05:43:44;93375.41;;;1.48;59.46
30935;BME280;51033;42.648;23.292;2023-02-04T05:46:10;93402.19;;;1.35;60.58
30935;BME280;51033;42.648;23.292;2023-02-04T05:48:35;93384.44;;;0.92;62.87
30935;BME280;51033;42.648;23.292;2023-02-04T05:51:01;93411.13;;;1.19;62.83
30935;BME280;51033;42.648;23.292;2023-02-04T05:53:26;93414.81;;;0.88;62.91
30935;BME280;51033;42.648;23.292;2023-02-04T05:55:52;93416.91;;;0.96;63.58
30935;BME280;51033;42.648;23.292;2023-02-04T05:58:17;93397.78;;;0.95;64.21
30935;BME280;51033;42.648;23.292;2023-02-04T06:00:42;93380.50;;;0.94;64.23
30935;BME280;51033;42.648;23.292;2023-02-04T06:03:08;93373.97;;;0.82;63.27
30935;BME280;51033;42.648;23.292;2023-02-04T06:05:33;93341.00;;;0.80;62.46
30935;BME280;51033;42.648;23.292;2023-02-04T06:07:58;93317.97;;;0.67;61.18
30935;BME280;51033;42.648;23.292;2023-02-04T06:10:24;93332.63;;;0.58;60.27
30935;BME280;51033;42.648;23.292;2023-02-04T06:12:49;93360.88;;;0.82;59.63
30935;BME280;51033;42.648;23.292;2023-02-04T06:15:15;93342.03;;;0.74;59.32
30935;BME280;51033;42.648;23.292;2023-02-04T06:17:40;93372.41;;;0.91;58.32
30935;BME280;51033;42.648;23.292;2023-02-04T06:20:06;93376.34;;;0.88;58.44
30935;BME280;51033;42.648;23.292;2023-02-04T06:22:32;93359.84;;;0.72;58.52
30935;BME280;51033;42.648;23.292;2023-02-04T06:24:58;93397.00;;;0.79;59.17
30935;BME280;51033;42.648;23.292;2023-02-04T06:27:23;93411.66;;;0.91;59.40
30935;BME280;51033;42.648;23.292;2023-02-04T06:29:50;93402.22;;;0.95;58.83
30935;BME280;51033;42.648;23.292;2023-02-04T06:32:17;93389.13;;;1.05;57.90
30935;BME280;51033;42.648;23.292;2023-02-04T06:34:42;93388.88;;;1.11;57.63
30935;BME280;51033;42.648;23.292;2023-02-04T06:37:07;93358.25;;;0.92;56.75
30935;BME280;51033;42.648;23.292;2023-02-04T06:39:34;93376.03;;;1.10;55.99
30935;BME280;51033;42.648;23.292;2023-02-04T06:42:00;93390.94;;;1.19;56.03
30935;BME280;51033;42.648;23.292;2023-02-04T06:44:25;93400.91;;;1.22;55.91
30935;BME280;51033;42.648;23.292;2023-02-04T06:46:51;93383.09;;;1.14;55.88
30935;BME280;51033;42.648;23.292;2023-02-04T06:49:16;93402.97;;;1.31;56.04
30935;BME280;51033;42.648;23.292;2023-02-04T06:51:42;93370.00;;;1.09;55.83
30935;BME280;51033;42.648;23.292;2023-02-04T06:54:07;93382.31;;;1.04;56.43
30935;BME280;51033;42.648;23.292;2023-02-04T06:56:32;93378.16;;;1.08;56.18
30935;BME280;51033;42.648;23.292;2023-02-04T06:58:58;93378.66;;;1.05;56.65
30935;BME280;51033;42.648;23.292;2023-02-04T07:01:23;93380.47;;;1.24;56.06
30935;BME280;51033;42.648;23.292;2023-02-04T07:03:49;93380.19;;;1.31;55.99
30935;BME280;51033;42.648;23.292;2023-02-04T07:06:14;93359.22;;;1.41;55.35
30935;BME280;51033;42.648;23.292;2023-02-04T07:08:40;93403.09;;;1.80;55.22
30935;BME280;51033;42.648;23.292;2023-02-04T07:11:05;93379.34;;;1.56;55.37
30935;BME280;51033;42.648;23.292;2023-02-04T07:13:31;93373.28;;;1.60;55.91
30935;BME280;51033;42.648;23.292;2023-02-04T07:15:56;93380.84;;;1.72;55.51
30935;BME280;51033;42.648;23.292;2023-02-04T07:18:21;93392.13;;;1.67;55.53
30935;BME280;51033;42.648;23.292;2023-02-04T07:20:47;93358.88;;;1.58;55.52
30935;BME280;51033;42.648;23.292;2023-02-04T07:23:12;93346.09;;;1.46;55.44
30935;BME280;51033;42.648;23.292;2023-02-04T07:25:37;93379.22;;;1.86;54.91
30935;BME280;51033;42.648;23.292;2023-02-04T07:28:03;93340.00;;;1.61;54.73
30935;BME280;51033;42.648;23.292;2023-02-04T07:30:32;93366.66;;;1.78;54.48
30935;BME280;51033;42.648;23.292;2023-02-04T07:32:58;93360.59;;;1.83;54.60
30935;BME280;51033;42.648;23.292;2023-02-04T07:35:23;93357.94;;;1.98;54.08
30935;BME280;51033;42.648;23.292;2023-02-04T07:37:49;93353.50;;;1.93;53.98
30935;BME280;51033;42.648;23.292;2023-02-04T07:40:14;93362.69;;;1.96;54.08
30935;BME280;51033;42.648;23.292;2023-02-04T07:42:40;93350.06;;;1.98;54.26
30935;BME280;51033;42.648;23.292;2023-02-04T07:45:06;93331.22;;;1.96;54.14
30935;BME280;51033;42.648;23.292;2023-02-04T07:47:32;93319.19;;;1.85;53.90
30935;BME280;51033;42.648;23.292;2023-02-04T07:49:57;93357.06;;;2.13;54.12
30935;BME280;51033;42.648;23.292;2023-02-04T07:52:23;93346.59;;;2.13;53.18
30935;BME280;51033;42.648;23.292;2023-02-04T07:54:48;93355.16;;;2.28;53.16
30935;BME280;51033;42.648;23.292;2023-02-04T07:57:15;93329.66;;;1.95;53.69
30935;BME280;51033;42.648;23.292;2023-02-04T07:59:40;93357.63;;;2.09;53.87
30935;BME280;51033;42.648;23.292;2023-02-04T08:02:06;93348.78;;;2.00;54.01
30935;BME280;51033;42.648;23.292;2023-02-04T08:04:31;93333.59;;;1.92;53.97
30935;BME280;51033;42.648;23.292;2023-02-04T08:06:56;93356.28;;;2.12;53.69
30935;BME280;51033;42.648;23.292;2023-02-04T08:09:22;93338.88;;;1.77;53.98
30935;BME280;51033;42.648;23.292;2023-02-04T08:11:48;93332.38;;;1.70;54.58
30935;BME280;51033;42.648;23.292;2023-02-04T08:14:13;93349.66;;;1.71;54.93
30935;BME280;51033;42.648;23.292;2023-02-04T08:16:39;93371.63;;;1.85;54.82
30935;BME280;51033;42.648;23.292;2023-02-04T08:19:04;93366.91;;;1.82;55.21
30935;BME280;51033;42.648;23.292;2023-02-04T08:21:29;93366.91;;;1.77;55.23
30935;BME280;51033;42.648;23.292;2023-02-04T08:23:55;93354.63;;;1.67;55.34
30935;BME280;51033;42.648;23.292;2023-02-04T08:26:20;93348.56;;;1.77;55.32
30935;BME280;51033;42.648;23.292;2023-02-04T08:28:46;93355.59;;;1.96;55.32
30935;BME280;51033;42.648;23.292;2023-02-04T08:31:11;93353.66;;;2.12;54.68
30935;BME280;51033;42.648;23.292;2023-02-04T08:33:38;93336.94;;;2.03;54.83
30935;BME280;51033;42.648;23.292;2023-02-04T08:36:05;93355.06;;;1.99;54.61
30935;BME280;51033;42.648;23.292;2023-02-04T08:38:31;93336.78;;;1.79;55.74
30935;BME280;51033;42.648;23.292;2023-02-04T08:40:56;93338.88;;;1.77;56.14
30935;BME280;51033;42.648;23.292;2023-02-04T08:43:22;93321.91;;;1.64;56.88
30935;BME280;51033;42.648;23.292;2023-02-04T08:45:47;93322.94;;;1.63;56.75
30935;BME280;51033;42.648;23.292;2023-02-04T08:48:12;93336.81;;;1.69;56.65
30935;BME280;51033;42.648;23.292;2023-02-04T08:50:38;93300.16;;;1.59;56.27
30935;BME280;51033;42.648;23.292;2023-02-04T08:53:03;93333.41;;;1.68;56.22
30935;BME280;51033;42.648;23.292;2023-02-04T08:55:29;93312.22;;;1.60;56.12
30935;BME280;51033;42.648;23.292;2023-02-04T08:57:54;93334.75;;;1.66;56.24
30935;BME280;51033;42.648;23.292;2023-02-04T09:00:20;93313.47;;;1.67;56.74
30935;BME280;51033;42.648;23.292;2023-02-04T09:02:45;93317.94;;;1.67;55.57
30935;BME280;51033;42.648;23.292;2023-02-04T09:05:11;93324.47;;;1.75;55.35
30935;BME280;51033;42.648;23.292;2023-02-04T09:07:36;93317.66;;;1.74;55.46
30935;BME280;51033;42.648;23.292;2023-02-04T09:10:02;93309.88;;;1.58;54.86
30935;BME280;51033;42.648;23.292;2023-02-04T09:12:27;93309.56;;;1.65;54.57
30935;BME280;51033;42.648;23.292;2023-02-04T09:14:53;93325.53;;;1.68;55.15
30935;BME280;51033;42.648;23.292;2023-02-04T09:17:18;93289.72;;;1.49;54.81
30935;BME280;51033;42.648;23.292;2023-02-04T09:19:43;93306.59;;;1.87;54.14
30935;BME280;51033;42.648;23.292;2023-02-04T09:22:09;93289.38;;;1.71;53.89
30935;BME280;51033;42.648;23.292;2023-02-04T09:24:34;93315.25;;;1.82;54.41
30935;BME280;51033;42.648;23.292;2023-02-04T09:27:00;93327.53;;;1.97;54.08
30935;BME280;51033;42.648;23.292;2023-02-04T09:29:25;93303.94;;;1.92;54.12
30935;BME280;51033;42.648;23.292;2023-02-04T09:31:50;93322.59;;;1.90;54.88
30935;BME280;51033;42.648;23.292;2023-02-04T09:34:16;93322.31;;;1.92;55.60
30935;BME280;51033;42.648;23.292;2023-02-04T09:36:41;93320.22;;;1.89;56.50
30935;BME280;51033;42.648;23.292;2023-02-04T09:39:07;93298.81;;;1.72;57.06
30935;BME280;51033;42.648;23.292;2023-02-04T09:41:35;93333.81;;;2.01;57.65
30935;BME280;51033;42.648;23.292;2023-02-04T09:44:03;93322.28;;;1.97;57.95
30935;BME280;51033;42.648;23.292;2023-02-04T09:46:29;93314.88;;;2.09;58.11
30935;BME280;51033;42.648;23.292;2023-02-04T09:48:57;93316.13;;;2.17;58.28
30935;BME280;51033;42.648;23.292;2023-02-04T09:51:26;93296.59;;;1.94;59.28
30935;BME280;51033;42.648;23.292;2023-02-04T09:53:54;93303.34;;;2.10;59.21
30935;BME280;51033;42.648;23.292;2023-02-04T09:56:22;93288.66;;;2.09;60.10
30935;BME280;51033;42.648;23.292;2023-02-04T09:58:49;93289.22;;;2.01;58.10
30935;BME280;51033;42.648;23.292;2023-02-04T10:01:17;93287.31;;;2.12;57.99
30935;BME280;51033;42.648;23.292;2023-02-04T10:03:45;93290.38;;;1.80;57.37
30935;BME280;51033;42.648;23.292;2023-02-04T10:06:19;93279.66;;;1.76;57.94
30935;BME280;51033;42.648;23.292;2023-02-04T10:08:47;93257.44;;;1.58;58.11
30935;BME280;51033;42.648;23.292;2023-02-04T10:11:13;93264.44;;;1.73;57.71
30935;BME280;51033;42.648;23.292;2023-02-04T10:13:48;93278.34;;;1.74;57.72
30935;BME280;51033;42.648;23.292;2023-02-04T10:16:18;93275.13;;;1.87;57.00
30935;BME280;51033;42.648;23.292;2023-02-04T10:18:44;93260.22;;;1.77;57.56
30935;BME280;51033;42.648;23.292;2023-02-04T10:23:41;93269.44;;;2.19;57.54
30935;BME280;51033;42.648;23.292;2023-02-04T10:26:10;93235.16;;;2.05;57.88
30935;BME280;51033;42.648;23.292;2023-02-04T10:28:36;93269.56;;;2.32;57.76
30935;BME280;51033;42.648;23.292;2023-02-04T10:31:04;93264.28;;;2.03;57.72
30935;BME280;51033;42.648;23.292;2023-02-04T10:33:32;93242.72;;;1.62;58.84
30935;BME280;51033;42.648;23.292;2023-02-04T10:35:59;93226.84;;;1.49;60.24
30935;BME280;51033;42.648;23.292;2023-02-04T10:38:24;93280.38;;;1.82;62.24
30935;BME280;51033;42.648;23.292;2023-02-04T10:41:04;93274.34;;;1.86;64.43
30935;BME280;51033;42.648;23.292;2023-02-04T10:43:30;93277.50;;;1.88;63.79
30935;BME280;51033;42.648;23.292;2023-02-04T10:46:02;93260.00;;;1.68;64.03
30935;BME280;51033;42.648;23.292;2023-02-04T10:48:28;93275.25;;;1.66;63.77
30935;BME280;51033;42.648;23.292;2023-02-04T10:50:56;93266.53;;;1.76;64.52
30935;BME280;51033;42.648;23.292;2023-02-04T10:53:23;93262.03;;;1.82;63.41
30935;BME280;51033;42.648;23.292;2023-02-04T10:56:17;93235.34;;;1.75;63.39
30935;BME280;51033;42.648;23.292;2023-02-04T10:58:42;93252.16;;;1.68;62.56
30935;BME280;51033;42.648;23.292;2023-02-04T11:01:10;93256.31;;;1.75;63.03
30935;BME280;51033;42.648;23.292;2023-02-04T11:03:37;93237.41;;;1.78;62.55
30935;BME280;51033;42.648;23.292;2023-02-04T11:06:11;93242.59;;;1.93;62.19
30935;BME280;51033;42.648;23.292;2023-02-04T11:08:38;93205.63;;;1.89;60.27
30935;BME280;51033;42.648;23.292;2023-02-04T11:11:07;93217.81;;;2.09;59.35
30935;BME280;51033;42.648;23.292;2023-02-04T11:18:47;93229.84;;;2.15;58.80
30935;BME280;51033;42.648;23.292;2023-02-04T11:21:40;93231.09;;;2.23;58.71
30935;BME280;51033;42.648;23.292;2023-02-04T11:26:51;93227.94;;;2.21;58.64
30935;BME280;51033;42.648;23.292;2023-02-04T11:29:32;93213.06;;;2.11;58.88
30935;BME280;51033;42.648;23.292;2023-02-04T11:32:08;93218.47;;;2.25;59.17
30935;BME280;51033;42.648;23.292;2023-02-04T11:34:50;93208.59;;;2.12;58.96
30935;BME280;51033;42.648;23.292;2023-02-04T11:39:57;93230.28;;;2.22;59.06
30935;BME280;51033;42.648;23.292;2023-02-04T11:42:57;93235.28;;;2.24;59.27
30935;BME280;51033;42.648;23.292;2023-02-04T11:45:19;93236.06;;;2.24;60.37
30935;BME280;51033;42.648;23.292;2023-02-04T11:47:46;93231.03;;;2.28;59.16
30935;BME280;51033;42.648;23.292;2023-02-04T11:50:16;93242.38;;;2.23;59.86
30935;BME280;51033;42.648;23.292;2023-02-04T11:52:44;93187.03;;;1.91;59.84
30935;BME280;51033;42.648;23.292;2023-02-04T11:55:10;93224.03;;;2.18;60.21
30935;BME280;51033;42.648;23.292;2023-02-04T11:57:41;93240.31;;;2.20;60.12
30935;BME280;51033;42.648;23.292;2023-02-04T12:00:14;93239.03;;;2.13;61.17
30935;BME280;51033;42.648;23.292;2023-02-04T12:02:46;93211.75;;;2.14;61.07
30935;BME280;51033;42.648;23.292;2023-02-04T12:05:14;93234.81;;;2.45;60.78
30935;BME280;51033;42.648;23.292;2023-02-04T12:07:40;93185.03;;;2.06;61.81
30935;BME280;51033;42.648;23.292;2023-02-04T12:10:13;93236.34;;;2.23;61.25
30935;BME280;51033;42.648;23.292;2023-02-04T12:12:48;93233.84;;;2.36;62.87
30935;BME280;51033;42.648;23.292;2023-02-04T12:15:19;93214.63;;;2.12;62.33
30935;BME280;51033;42.648;23.292;2023-02-04T12:17:45;93230.81;;;2.24;62.20
30935;BME280;51033;42.648;23.292;2023-02-04T12:20:13;93205.72;;;2.13;63.02
30935;BME280;51033;42.648;23.292;2023-02-04T12:22:38;93231.97;;;2.42;62.71
30935;BME280;51033;42.648;23.292;2023-02-04T12:25:04;93224.97;;;2.32;63.21
30935;BME280;51033;42.648;23.292;2023-02-04T12:27:29;93197.97;;;2.27;64.36
30935;BME280;51033;42.648;23.292;2023-02-04T12:29:55;93181.00;;;2.48;62.48
30935;BME280;51033;42.648;23.292;2023-02-04T12:32:20;93211.94;;;2.75;60.63
30935;BME280;51033;42.648;23.292;2023-02-04T12:34:45;93215.19;;;2.67;59.80
30935;BME280;51033;42.648;23.292;2023-02-04T12:37:11;93197.97;;;2.56;58.96
30935;BME280;51033;42.648;23.292;2023-02-04T12:39:36;93214.84;;;2.49;59.86
30935;BME280;51033;42.648;23.292;2023-02-04T12:42:02;93196.97;;;2.23;59.28
30935;BME280;51033;42.648;23.292;2023-02-04T12:44:28;93201.69;;;2.21;59.61
30935;BME280;51033;42.648;23.292;2023-02-04T12:46:54;93222.06;;;2.34;59.75
30935;BME280;51033;42.648;23.292;2023-02-04T12:49:19;93207.44;;;1.94;59.81
30935;BME280;51033;42.648;23.292;2023-02-04T12:51:45;93218.69;;;1.99;60.09
30935;BME280;51033;42.648;23.292;2023-02-04T12:54:10;93215.66;;;2.16;59.83
30935;BME280;51033;42.648;23.292;2023-02-04T12:56:36;93214.53;;;1.93;59.84
30935;BME280;51033;42.648;23.292;2023-02-04T12:59:01;93210.00;;;2.04;59.44
30935;BME280;51033;42.648;23.292;2023-02-04T13:01:26;93191.59;;;1.70;60.62
30935;BME280;51033;42.648;23.292;2023-02-04T13:03:52;93180.34;;;1.64;60.92
30935;BME280;51033;42.648;23.292;2023-02-04T13:06:17;93230.31;;;1.78;61.51